createdAt,value
2022-10-14T00:02:23.127Z,10.57
2022-10-14T00:04:49.961Z,11.18
2022-10-14T00:07:16.593Z,10.43
2022-10-14T00:09:43.320Z,10.85
2022-10-14T00:12:13.644Z,9.98
2022-10-14T00:14:40.366Z,12.10
2022-10-14T00:17:07.002Z,12.73
2022-10-14T00:19:33.656Z,12.10
2022-10-14T00:22:00.234Z,11.00
2022-10-14T00:24:26.890Z,11.85
2022-10-14T00:26:53.504Z,12.18
2022-10-14T00:29:20.282Z,12.35
2022-10-14T00:31:47.465Z,10.75
2022-10-14T00:34:16.039Z,10.27
2022-10-14T00:36:43.336Z,10.60
2022-10-14T00:39:15.012Z,11.80
2022-10-14T00:41:41.925Z,10.80
2022-10-14T00:44:14.320Z,10.85
2022-10-14T00:46:43.318Z,10.90
2022-10-14T00:49:18.632Z,11.60
2022-10-14T00:51:50.125Z,11.98
2022-10-14T00:54:24.130Z,12.25
2022-10-14T00:56:52.580Z,10.70
2022-10-14T00:59:19.511Z,11.32
2022-10-14T01:01:46.268Z,11.15
2022-10-14T01:04:12.990Z,11.98
2022-10-14T01:06:48.532Z,11.32
2022-10-14T01:09:18.187Z,10.35
2022-10-14T01:12:28.148Z,11.45
2022-10-14T01:15:10.921Z,10.95
2022-10-14T01:18:02.335Z,11.30
2022-10-14T01:21:10.051Z,10.52
2022-10-14T01:24:05.444Z,11.30
2022-10-14T01:26:53.302Z,10.20
2022-10-14T01:29:41.050Z,11.00
2022-10-14T01:32:15.943Z,11.75
2022-10-14T01:34:52.298Z,12.02
2022-10-14T01:37:25.067Z,11.52
2022-10-14T01:40:06.886Z,10.48
2022-10-14T01:42:38.329Z,12.13
2022-10-14T01:45:18.787Z,12.18
2022-10-14T01:47:49.243Z,11.82
2022-10-14T01:50:19.007Z,11.10
2022-10-14T01:52:55.744Z,12.18
2022-10-14T01:55:27.207Z,11.15
2022-10-14T01:57:56.939Z,11.27
2022-10-14T02:00:24.697Z,11.40
2022-10-14T02:02:51.340Z,12.32
2022-10-14T02:05:38.743Z,12.65
2022-10-14T02:08:13.078Z,12.15
2022-10-14T02:11:05.422Z,12.20
2022-10-14T02:13:57.583Z,11.95
2022-10-14T02:16:29.097Z,10.57
2022-10-14T02:19:05.509Z,11.73
2022-10-14T02:22:01.668Z,12.77
2022-10-14T02:24:41.621Z,11.73
2022-10-14T02:27:15.434Z,11.70
2022-10-14T02:29:45.561Z,12.63
2022-10-14T02:32:16.287Z,12.30
2022-10-14T02:34:47.274Z,13.52
2022-10-14T02:37:15.752Z,13.25
2022-10-14T02:39:48.714Z,13.48
2022-10-14T02:42:15.516Z,13.52
2022-10-14T02:44:53.907Z,13.48
2022-10-14T02:47:21.661Z,13.30
2022-10-14T02:49:49.519Z,13.27
2022-10-14T02:52:16.367Z,13.88
2022-10-14T02:54:43.242Z,13.88
2022-10-14T02:57:10.250Z,13.98
2022-10-14T02:59:36.855Z,14.13
2022-10-14T03:02:04.533Z,13.70
2022-10-14T03:04:31.304Z,13.35
2022-10-14T03:06:58.018Z,14.32
2022-10-14T03:09:25.524Z,14.88
2022-10-14T03:11:52.216Z,14.93
2022-10-14T03:14:20.561Z,13.73
2022-10-14T03:16:48.100Z,14.10
2022-10-14T03:19:20.901Z,13.45
2022-10-14T03:21:50.026Z,14.32
2022-10-14T03:24:19.717Z,13.88
2022-10-14T03:26:50.957Z,14.93
2022-10-14T03:29:23.787Z,14.95
2022-10-14T03:31:56.503Z,13.80
2022-10-14T03:34:43.374Z,14.82
2022-10-14T03:37:15.276Z,14.55
2022-10-14T03:39:48.939Z,13.38
2022-10-14T03:42:16.853Z,14.02
2022-10-14T03:44:47.082Z,13.55
2022-10-14T03:47:21.677Z,14.15
2022-10-14T03:49:48.544Z,15.52
2022-10-14T03:52:22.503Z,14.27
2022-10-14T03:55:00.096Z,17.05
2022-10-14T03:57:27.842Z,15.43
2022-10-14T03:59:56.894Z,18.60
2022-10-14T04:02:29.490Z,15.90
2022-10-14T04:05:00.849Z,15.30
2022-10-14T04:07:28.005Z,15.63
2022-10-14T04:09:57.292Z,15.23
2022-10-14T04:12:24.457Z,14.18
2022-10-14T04:15:08.264Z,14.60
2022-10-14T04:17:48.279Z,14.07
2022-10-14T04:20:17.215Z,14.43
2022-10-14T04:22:44.080Z,14.10
2022-10-14T04:25:13.564Z,14.63
2022-10-14T04:27:40.415Z,13.23
2022-10-14T04:30:10.317Z,14.00
2022-10-14T04:32:46.761Z,15.15
2022-10-14T04:35:13.479Z,14.15
2022-10-14T04:37:44.245Z,15.23
2022-10-14T04:40:20.420Z,15.38
2022-10-14T04:42:47.479Z,15.40
2022-10-14T04:45:25.257Z,14.02
2022-10-14T04:47:58.978Z,13.85
2022-10-14T04:50:26.438Z,14.38
2022-10-14T04:53:13.700Z,14.63
2022-10-14T04:55:52.785Z,15.55
2022-10-14T04:58:19.995Z,15.48
2022-10-14T05:00:48.028Z,14.73
2022-10-14T05:03:32.128Z,14.57
2022-10-14T05:05:59.581Z,14.80
2022-10-14T05:08:26.828Z,15.57
2022-10-14T05:10:56.175Z,16.77
2022-10-14T05:13:41.278Z,15.00
2022-10-14T05:16:09.021Z,15.93
2022-10-14T05:18:35.862Z,14.82
2022-10-14T05:21:07.512Z,16.67
2022-10-14T05:23:49.321Z,16.40
2022-10-14T05:26:16.277Z,16.13
2022-10-14T05:28:43.192Z,16.52
2022-10-14T05:31:10.720Z,14.68
2022-10-14T05:33:45.329Z,15.27
2022-10-14T05:36:12.405Z,14.45
2022-10-14T05:38:39.307Z,15.73
2022-10-14T05:41:06.021Z,14.88
2022-10-14T05:43:33.246Z,14.75
2022-10-14T05:46:02.379Z,15.27
2022-10-14T05:48:33.810Z,16.48
2022-10-14T05:51:02.389Z,15.52
2022-10-14T05:53:32.414Z,17.05
2022-10-14T05:56:07.804Z,15.85
2022-10-14T05:58:37.050Z,16.17
2022-10-14T06:01:12.432Z,16.42
2022-10-14T06:03:41.777Z,16.63
2022-10-14T06:06:15.314Z,18.13
2022-10-14T06:08:42.817Z,16.25
2022-10-14T06:11:09.578Z,17.67
2022-10-14T06:13:36.248Z,17.60
2022-10-14T06:16:08.032Z,17.98
2022-10-14T06:18:36.125Z,17.90
2022-10-14T06:21:03.444Z,18.85
2022-10-14T06:23:30.275Z,17.98
2022-10-14T06:25:57.084Z,18.38
2022-10-14T06:28:23.827Z,18.13
2022-10-14T06:30:54.576Z,17.65
2022-10-14T06:33:22.625Z,17.90
2022-10-14T06:35:49.298Z,18.35
2022-10-14T06:38:15.942Z,18.27
2022-10-14T06:40:42.575Z,16.40
2022-10-14T06:43:09.224Z,18.17
2022-10-14T06:45:35.891Z,16.52
2022-10-14T06:48:04.391Z,16.33
2022-10-14T06:50:31.020Z,15.60
2022-10-14T06:52:57.641Z,15.05
2022-10-14T06:55:24.293Z,15.52
2022-10-14T06:57:50.979Z,16.20
2022-10-14T07:00:18.043Z,15.38
2022-10-14T07:02:45.027Z,15.20
2022-10-14T07:05:12.008Z,14.75
2022-10-14T07:07:38.926Z,14.77
2022-10-14T07:10:06.003Z,15.43
2022-10-14T07:12:32.648Z,15.13
2022-10-14T07:14:59.309Z,13.70
2022-10-14T07:17:25.898Z,14.32
2022-10-14T07:19:52.519Z,15.05
2022-10-14T07:22:19.327Z,14.60
2022-10-14T07:24:46.111Z,13.57
2022-10-14T07:27:15.834Z,14.93
2022-10-14T07:29:43.072Z,14.18
2022-10-14T07:32:09.650Z,14.25
2022-10-14T07:34:36.427Z,14.10
2022-10-14T07:37:03.768Z,14.00
2022-10-14T07:39:30.485Z,13.88
2022-10-14T07:41:57.084Z,14.38
2022-10-14T07:44:27.256Z,13.52
2022-10-14T07:46:54.454Z,13.60
2022-10-14T07:49:23.662Z,13.98
2022-10-14T07:51:50.517Z,15.18
2022-10-14T07:54:20.583Z,14.82
2022-10-14T07:56:50.775Z,14.13
2022-10-14T07:59:19.834Z,14.32
2022-10-14T08:01:47.460Z,14.80
2022-10-14T08:04:14.204Z,14.32
2022-10-14T08:06:40.900Z,13.05
2022-10-14T08:09:10.922Z,13.73
2022-10-14T08:11:37.744Z,13.43
2022-10-14T08:14:04.655Z,12.80
2022-10-14T08:16:34.606Z,14.13
2022-10-14T08:19:05.560Z,13.30
2022-10-14T08:21:34.528Z,13.85
2022-10-14T08:24:01.239Z,13.07
2022-10-14T08:26:31.818Z,13.60
2022-10-14T08:29:06.658Z,12.10
2022-10-14T08:31:33.555Z,11.68
2022-10-14T08:34:00.261Z,12.65
2022-10-14T08:36:27.182Z,11.45
2022-10-14T08:38:54.656Z,12.15
2022-10-14T08:41:24.260Z,10.82
2022-10-14T08:44:12.542Z,11.27
2022-10-14T08:46:52.183Z,10.27
2022-10-14T08:49:22.400Z,9.20
2022-10-14T08:52:15.017Z,8.38
2022-10-14T08:54:49.429Z,8.13
2022-10-14T08:57:22.514Z,6.63
2022-10-14T08:59:49.254Z,6.78
2022-10-14T09:02:28.111Z,6.72
2022-10-14T09:04:55.107Z,7.20
2022-10-14T09:07:21.917Z,6.72
2022-10-14T09:10:11.453Z,6.03
2022-10-14T09:12:40.134Z,5.60
2022-10-14T09:15:15.974Z,6.30
2022-10-14T09:18:19.716Z,5.88
2022-10-14T09:20:47.277Z,5.63
2022-10-14T09:23:19.913Z,7.30
2022-10-14T09:26:05.223Z,6.15
2022-10-14T09:28:38.471Z,6.15
2022-10-14T09:31:08.105Z,6.38
2022-10-14T09:33:42.081Z,6.15
2022-10-14T09:36:20.798Z,7.05
2022-10-14T09:38:52.867Z,6.70
2022-10-14T09:41:30.188Z,6.55
2022-10-14T09:44:22.141Z,7.10
2022-10-14T09:47:13.092Z,5.47
2022-10-14T09:49:46.870Z,5.13
2022-10-14T09:52:24.940Z,4.65
2022-10-14T09:54:55.129Z,4.18
2022-10-14T09:57:22.136Z,3.90
2022-10-14T10:00:00.545Z,3.55
2022-10-14T10:02:40.951Z,3.25
2022-10-14T10:05:35.308Z,3.17
2022-10-14T10:08:04.590Z,3.33
2022-10-14T10:10:32.064Z,3.28
2022-10-14T10:12:58.963Z,3.13
2022-10-14T10:15:26.017Z,3.40
2022-10-14T10:17:53.382Z,4.35
2022-10-14T10:20:20.122Z,4.00
2022-10-14T10:22:46.885Z,3.72
2022-10-14T10:25:13.822Z,3.95
2022-10-14T10:27:42.960Z,5.32
2022-10-14T10:30:21.315Z,4.03
2022-10-14T10:33:29.179Z,3.95
2022-10-14T10:36:08.313Z,4.22
2022-10-14T10:38:45.301Z,4.05
2022-10-14T10:41:25.042Z,3.90
2022-10-14T10:43:57.650Z,3.50
2022-10-14T10:46:52.096Z,3.55
2022-10-14T10:49:44.657Z,3.33
2022-10-14T10:52:47.027Z,3.30
2022-10-14T10:55:18.295Z,3.42
2022-10-14T10:57:50.627Z,3.35
2022-10-14T11:00:21.134Z,3.25
2022-10-14T11:02:55.918Z,3.20
2022-10-14T11:05:25.419Z,2.95
2022-10-14T11:08:49.454Z,3.05
2022-10-14T11:11:41.743Z,2.97
2022-10-14T11:14:26.906Z,3.10
2022-10-14T11:17:12.002Z,2.50
2022-10-14T11:20:05.347Z,3.03
2022-10-14T11:22:59.971Z,2.88
2022-10-14T11:25:36.204Z,2.15
2022-10-14T11:28:41.840Z,2.55
2022-10-14T11:31:27.514Z,2.58
2022-10-14T11:34:15.825Z,2.55
2022-10-14T11:37:04.007Z,2.85
2022-10-14T11:39:45.518Z,2.63
2022-10-14T11:42:34.037Z,2.50
2022-10-14T11:45:49.672Z,2.67
2022-10-14T11:48:34.394Z,2.70
2022-10-14T11:51:36.861Z,2.72
2022-10-14T11:54:03.924Z,3.03
2022-10-14T11:56:39.355Z,2.72
2022-10-14T11:59:36.833Z,2.75
2022-10-14T12:02:18.499Z,3.05
2022-10-14T12:04:52.553Z,6.22
2022-10-14T12:07:24.997Z,3.85
2022-10-14T12:10:01.892Z,3.38
2022-10-14T12:12:30.707Z,3.28
2022-10-14T12:15:06.244Z,2.97
2022-10-14T12:17:42.902Z,2.97
2022-10-14T12:20:34.407Z,2.95
2022-10-14T12:23:03.356Z,2.80
2022-10-14T12:25:38.139Z,2.85
2022-10-14T12:28:05.458Z,3.05
2022-10-14T12:30:36.740Z,2.97
2022-10-14T12:33:17.706Z,3.25
2022-10-14T12:36:00.835Z,3.00
2022-10-14T12:38:29.718Z,3.05
2022-10-14T12:41:36.042Z,2.90
2022-10-14T12:44:05.057Z,2.97
2022-10-14T12:46:31.729Z,2.70
2022-10-14T12:49:00.303Z,2.67
2022-10-14T12:51:27.322Z,2.53
2022-10-14T12:53:57.919Z,2.60
2022-10-14T12:56:42.118Z,2.40
2022-10-14T12:59:22.497Z,2.30
2022-10-14T13:01:55.894Z,2.17
2022-10-14T13:04:22.793Z,1.90
2022-10-14T13:07:43.282Z,2.20
2022-10-14T13:10:56.309Z,1.80
2022-10-14T13:13:52.356Z,1.92
2022-10-14T13:16:25.240Z,2.25
2022-10-14T13:18:57.729Z,1.77
2022-10-14T13:21:36.208Z,1.80
2022-10-14T13:24:07.397Z,1.42
2022-10-14T13:26:44.047Z,1.60
2022-10-14T13:29:19.896Z,1.85
2022-10-14T13:32:05.052Z,1.52
2022-10-14T13:34:43.987Z,1.63
2022-10-14T13:37:36.554Z,2.10
2022-10-14T13:40:39.189Z,1.67
2022-10-14T13:43:19.514Z,1.77
2022-10-14T13:46:02.514Z,1.88
2022-10-14T13:48:43.751Z,1.88
2022-10-14T13:51:24.713Z,1.85
2022-10-14T13:54:32.684Z,1.77
2022-10-14T14:02:39.860Z,1.70
2022-10-14T14:05:14.180Z,1.58
2022-10-14T14:10:30.373Z,1.33
2022-10-14T14:12:58.317Z,1.50
2022-10-14T14:15:28.941Z,1.70
2022-10-14T14:17:55.693Z,1.52
2022-10-14T14:20:26.227Z,1.70
2022-10-14T14:22:53.528Z,1.75
2022-10-14T14:25:33.996Z,1.58
2022-10-14T14:28:02.891Z,1.40
2022-10-14T14:30:38.779Z,1.75
2022-10-14T14:33:10.820Z,1.67
2022-10-14T14:35:37.607Z,1.65
2022-10-14T14:38:04.471Z,1.70
2022-10-14T14:40:31.770Z,2.08
2022-10-14T14:43:00.677Z,2.92
2022-10-14T14:45:43.182Z,2.78
2022-10-14T14:48:12.150Z,2.33
2022-10-14T14:50:43.267Z,2.70
2022-10-14T14:53:13.827Z,2.75
2022-10-14T14:55:46.093Z,2.60
2022-10-14T14:58:47.160Z,2.90
2022-10-14T15:01:23.882Z,2.80
2022-10-14T15:04:14.698Z,2.85
2022-10-14T15:06:51.368Z,2.60
2022-10-14T15:09:24.927Z,2.42
2022-10-14T15:11:57.621Z,2.70
2022-10-14T15:15:16.941Z,2.40
2022-10-14T15:17:47.512Z,2.80
2022-10-14T15:20:29.838Z,2.70
2022-10-14T15:22:56.533Z,3.45
2022-10-14T15:25:30.693Z,3.50
2022-10-14T15:28:01.852Z,2.45
2022-10-14T15:30:40.680Z,1.85
2022-10-14T15:33:24.773Z,2.28
2022-10-14T15:36:01.592Z,2.08
2022-10-14T15:40:56.270Z,5.22
2022-10-14T15:43:24.902Z,7.97
2022-10-14T15:46:15.576Z,7.40
2022-10-14T15:48:54.724Z,14.55
2022-10-14T15:51:26.112Z,9.10
2022-10-14T15:53:52.815Z,6.00
2022-10-14T15:56:20.876Z,4.55
2022-10-14T15:58:47.883Z,3.92
2022-10-14T16:01:22.825Z,3.60
2022-10-14T16:03:52.171Z,4.50
2022-10-14T16:06:22.289Z,3.10
2022-10-14T16:08:49.025Z,5.20
2022-10-14T16:11:29.843Z,3.30
2022-10-14T16:13:56.695Z,4.00
2022-10-14T16:16:37.027Z,3.33
2022-10-14T16:19:04.730Z,6.72
2022-10-14T16:21:31.852Z,4.53
2022-10-14T16:23:59.032Z,3.17
2022-10-14T16:26:26.176Z,3.90
2022-10-14T16:28:53.069Z,3.25
2022-10-14T16:31:21.222Z,2.83
2022-10-14T16:33:56.053Z,3.10
2022-10-14T16:36:25.950Z,2.95
2022-10-14T16:38:53.062Z,3.05
2022-10-14T16:41:19.793Z,2.90
2022-10-14T16:43:47.486Z,3.22
2022-10-14T16:46:16.044Z,3.85
2022-10-14T16:48:42.987Z,3.00
2022-10-14T16:51:09.837Z,3.15
2022-10-14T16:53:43.775Z,3.75
2022-10-14T16:56:37.829Z,3.58
2022-10-14T16:59:05.355Z,4.18
2022-10-14T17:01:32.165Z,3.83
2022-10-14T17:03:58.893Z,4.07
2022-10-14T17:06:26.471Z,4.53
2022-10-14T17:08:53.683Z,4.50
2022-10-14T17:11:20.629Z,4.60
2022-10-14T17:13:50.337Z,4.97
2022-10-14T17:16:16.983Z,5.25
2022-10-14T17:18:43.623Z,5.57
2022-10-14T17:21:13.589Z,7.07
2022-10-14T17:23:42.208Z,7.32
2022-10-14T17:26:11.929Z,6.20
2022-10-14T17:28:40.453Z,6.57
2022-10-14T17:31:10.041Z,7.07
2022-10-14T17:33:37.541Z,6.43
2022-10-14T17:36:06.329Z,6.80
2022-10-14T17:38:34.843Z,6.38
2022-10-14T17:41:03.323Z,6.40
2022-10-14T17:43:31.117Z,6.05
2022-10-14T17:48:42.679Z,5.47
2022-10-14T17:51:13.426Z,5.63
2022-10-14T17:53:40.349Z,5.63
2022-10-14T17:56:09.575Z,6.38
2022-10-14T17:58:36.227Z,6.47
2022-10-14T18:01:11.403Z,7.97
2022-10-14T18:03:41.948Z,8.57
2022-10-14T18:06:18.894Z,9.05
2022-10-14T18:08:49.422Z,8.32
2022-10-14T18:11:17.083Z,7.70
2022-10-14T18:13:43.744Z,7.32
2022-10-14T18:16:13.231Z,6.65
2022-10-14T18:18:41.523Z,6.90
2022-10-14T18:21:10.082Z,6.90
2022-10-14T18:23:39.103Z,6.10
2022-10-14T18:26:13.411Z,5.30
2022-10-14T18:28:47.640Z,5.07
2022-10-14T18:31:17.349Z,4.15
2022-10-14T18:33:44.867Z,4.45
2022-10-14T18:36:13.518Z,4.63
2022-10-14T18:38:40.868Z,4.80
2022-10-14T18:41:11.708Z,3.90
2022-10-14T18:43:38.664Z,4.10
2022-10-14T18:46:09.515Z,5.38
2022-10-14T18:48:37.141Z,4.65
2022-10-14T18:51:05.286Z,5.88
2022-10-14T18:53:33.098Z,5.45
2022-10-14T18:56:08.335Z,5.78
2022-10-14T18:58:39.371Z,5.40
2022-10-14T19:01:06.409Z,5.55
2022-10-14T19:03:34.982Z,5.40
2022-10-14T19:06:02.101Z,5.85
2022-10-14T19:08:28.723Z,7.07
2022-10-14T19:11:20.108Z,6.53
2022-10-14T19:13:48.785Z,7.10
2022-10-14T19:16:22.360Z,6.72
2022-10-14T19:18:54.286Z,6.82
2022-10-14T19:21:22.525Z,6.97
2022-10-14T19:23:50.234Z,8.00
2022-10-14T19:26:21.881Z,9.75
2022-10-14T19:28:49.763Z,8.02
2022-10-14T19:31:20.088Z,8.35
2022-10-14T19:33:47.405Z,7.57
2022-10-14T19:36:16.325Z,8.52
2022-10-14T19:38:50.953Z,9.40
2022-10-14T19:41:18.419Z,9.13
2022-10-14T19:43:45.100Z,8.93
2022-10-14T19:46:13.586Z,8.90
2022-10-14T19:48:40.694Z,9.35
2022-10-14T19:51:11.623Z,8.60
2022-10-14T19:53:38.786Z,9.45
2022-10-14T19:56:10.708Z,9.25
2022-10-14T19:58:40.979Z,10.27
2022-10-14T20:01:20.943Z,8.55
2022-10-14T20:03:47.670Z,9.43
2022-10-14T20:06:14.665Z,10.20
2022-10-14T20:08:42.799Z,12.32
2022-10-14T20:11:14.211Z,10.88
2022-10-14T20:13:40.896Z,10.93
2022-10-14T20:16:09.720Z,10.38
2022-10-14T20:18:37.134Z,10.00
2022-10-14T20:21:05.986Z,11.55
2022-10-14T20:23:34.357Z,11.90
2022-10-14T20:26:07.172Z,10.70
2022-10-14T20:28:38.142Z,10.63
2022-10-14T20:31:13.496Z,10.93
2022-10-14T20:33:40.458Z,11.15
2022-10-14T20:36:13.343Z,12.20
2022-10-14T20:38:41.268Z,11.43
2022-10-14T20:41:13.755Z,11.35
2022-10-14T20:43:41.431Z,11.13
2022-10-14T20:46:08.093Z,11.18
2022-10-14T20:48:34.772Z,11.40
2022-10-14T20:51:08.350Z,11.38
2022-10-14T20:53:35.103Z,11.50
2022-10-14T20:56:10.908Z,11.05
2022-10-14T20:58:37.835Z,11.32
2022-10-14T21:01:17.673Z,11.48
2022-10-14T21:03:45.763Z,10.82
2022-10-14T21:06:15.631Z,11.32
2022-10-14T21:08:42.663Z,10.82
2022-10-14T21:11:14.972Z,11.38
2022-10-14T21:13:45.153Z,11.48
2022-10-14T21:16:16.177Z,11.02
2022-10-14T21:18:55.204Z,10.25
2022-10-14T21:21:26.211Z,12.07
2022-10-14T21:23:52.896Z,12.00
2022-10-14T21:26:19.706Z,11.65
2022-10-14T21:28:46.594Z,12.77
2022-10-14T21:31:17.406Z,12.35
2022-10-14T21:33:46.931Z,12.52
2022-10-14T21:36:16.019Z,11.50
2022-10-14T21:38:42.792Z,11.15
2022-10-14T21:41:09.513Z,11.30
2022-10-14T21:43:37.501Z,12.20
2022-10-14T21:46:12.299Z,11.98
2022-10-14T21:48:39.180Z,12.73
2022-10-14T21:51:08.639Z,12.20
2022-10-14T21:53:35.269Z,11.77
2022-10-14T21:56:02.039Z,13.43
2022-10-14T21:58:29.824Z,12.50
2022-10-14T22:01:09.293Z,13.00
2022-10-14T22:03:37.312Z,12.05
2022-10-14T22:06:06.910Z,10.93
2022-10-14T22:08:36.927Z,11.43
2022-10-14T22:11:04.701Z,11.50
2022-10-14T22:13:32.431Z,12.13
2022-10-14T22:15:59.351Z,12.13
2022-10-14T22:18:27.619Z,12.65
2022-10-14T22:21:04.888Z,13.07
2022-10-14T22:23:33.124Z,13.93
2022-10-14T22:26:04.649Z,11.85
2022-10-14T22:28:31.916Z,12.82
2022-10-14T22:31:19.426Z,12.05
2022-10-14T22:33:46.378Z,11.63
2022-10-14T22:36:19.367Z,11.15
2022-10-14T22:38:49.782Z,12.57
2022-10-14T22:41:18.037Z,11.30
2022-10-14T22:43:52.819Z,11.82
2022-10-14T22:46:21.196Z,11.95
2022-10-14T22:48:56.050Z,12.30
2022-10-14T22:51:34.771Z,12.18
2022-10-14T22:54:02.206Z,11.68
2022-10-14T22:56:30.468Z,11.10
2022-10-14T22:58:59.717Z,12.77
2022-10-14T23:01:29.721Z,12.25
2022-10-14T23:03:57.416Z,12.10
2022-10-14T23:06:24.177Z,12.73
2022-10-14T23:08:50.922Z,12.73
2022-10-14T23:11:19.585Z,14.15
2022-10-14T23:13:46.864Z,13.02
2022-10-14T23:16:19.695Z,12.60
2022-10-14T23:18:46.834Z,11.55
2022-10-14T23:21:19.253Z,13.27
2022-10-14T23:23:47.051Z,12.27
2022-10-14T23:26:16.403Z,12.57
2022-10-14T23:28:47.180Z,12.10
2022-10-14T23:31:16.333Z,12.20
2022-10-14T23:33:43.601Z,11.68
2022-10-14T23:36:12.358Z,12.82
2022-10-14T23:38:40.009Z,12.95
2022-10-14T23:41:08.181Z,12.13
2022-10-14T23:43:35.071Z,12.35
2022-10-14T23:46:02.266Z,12.43
2022-10-14T23:48:29.281Z,13.20
2022-10-14T23:50:56.315Z,12.30
2022-10-14T23:53:23.540Z,13.15
2022-10-14T23:55:50.174Z,15.30
2022-10-14T23:58:16.846Z,13.30
